Time;durP1;ratioP1;P1;durP2;ratioP2;P2;SDS_P1;SDS_P2;PMS_P1;PMS_P2;Temp;Humidity;BMP_temperature;BMP_pressure;BME280_temperature;BME280_humidity;BME280_pressure;Samples;Min_cycle;Max_cycle;Signal;HPM_P1;HPM_P2
2022/02/19 00:00:12;;;;;;;4.28;2.83;;;;;;;7.75;79.90;95880.28;5099933;28;20032;-65
2022/02/19 00:02:38;;;;;;;2.63;2.42;;;;;;;7.80;79.96;95885.16;5101895;28;20027;-65
2022/02/19 00:05:04;;;;;;;3.35;2.65;;;;;;;7.65;79.46;95888.03;5097422;28;20020;-65
2022/02/19 00:07:30;;;;;;;2.10;1.90;;;;;;;7.60;79.09;95890.16;5103145;28;20031;-64
2022/02/19 00:09:55;;;;;;;2.72;2.28;;;;;;;7.60;78.19;95893.63;5097351;28;20031;-65
2022/02/19 00:12:20;;;;;;;3.75;2.38;;;;;;;7.59;78.52;95891.09;5099449;28;20024;-64
2022/02/19 00:14:47;;;;;;;3.45;2.58;;;;;;;7.68;77.39;95887.78;5098069;28;20465;-65
2022/02/19 00:17:13;;;;;;;4.20;1.88;;;;;;;7.57;77.56;95879.91;5093272;28;20024;-61
2022/02/19 00:19:38;;;;;;;2.72;1.73;;;;;;;7.61;76.03;95881.34;5094076;28;20020;-64
2022/02/19 00:22:05;;;;;;;2.10;1.90;;;;;;;7.53;76.93;95881.09;5094212;28;20065;-64
2022/02/19 00:24:31;;;;;;;3.40;1.80;;;;;;;7.70;78.23;95882.41;5092004;28;20445;-63
2022/02/19 00:26:56;;;;;;;3.67;1.80;;;;;;;7.63;78.14;95889.09;5093963;28;20027;-63
2022/02/19 00:29:22;;;;;;;3.17;1.77;;;;;;;7.52;77.93;95888.16;5093770;28;20450;-63
2022/02/19 00:31:47;;;;;;;1.83;1.58;;;;;;;7.79;75.73;95899.22;5093705;28;20059;-64
2022/02/19 00:34:12;;;;;;;2.80;1.60;;;;;;;7.71;74.74;95898.03;5091960;28;20024;-63
2022/02/19 00:36:38;;;;;;;2.17;1.95;;;;;;;7.67;74.98;95908.84;5091214;28;20023;-63
2022/02/19 00:39:04;;;;;;;3.15;2.15;;;;;;;7.59;74.82;95925.16;5090016;28;20055;-63
2022/02/19 00:41:29;;;;;;;2.53;2.25;;;;;;;7.50;75.24;95928.50;5087590;28;20055;-63
2022/02/19 00:43:55;;;;;;;2.20;1.90;;;;;;;7.53;75.48;95925.66;5088651;28;20060;-63
2022/02/19 00:46:20;;;;;;;5.40;1.58;;;;;;;7.52;74.83;95930.06;5089388;28;20792;-63
2022/02/19 00:48:46;;;;;;;4.85;2.00;;;;;;;7.29;75.79;95939.66;5090989;28;20054;-63
2022/02/19 00:51:11;;;;;;;4.32;2.40;;;;;;;7.15;76.67;95944.13;5092636;28;20017;-64
2022/02/19 00:53:37;;;;;;;8.05;2.20;;;;;;;7.20;78.74;95940.34;5089984;28;20551;-63
2022/02/19 00:56:02;;;;;;;2.58;1.85;;;;;;;7.10;78.55;95946.25;5091386;28;20008;-63
2022/02/19 00:58:27;;;;;;;4.40;2.80;;;;;;;6.81;80.71;95951.03;5071627;28;20051;-63
2022/02/19 01:00:53;;;;;;;4.75;2.60;;;;;;;6.77;81.91;95960.91;5092331;28;20095;-63
2022/02/19 01:03:18;;;;;;;10.73;5.97;;;;;;;6.59;82.53;95963.91;5088619;28;20024;-63
2022/02/19 01:05:44;;;;;;;3.88;2.70;;;;;;;6.43;83.97;95965.94;5089844;28;20036;-64
2022/02/19 01:08:09;;;;;;;6.45;3.03;;;;;;;6.37;85.46;95963.75;5089518;28;20036;-64
2022/02/19 01:10:37;;;;;;;4.07;2.17;;;;;;;6.33;84.85;95978.81;5088335;28;20479;-64
2022/02/19 01:13:03;;;;;;;5.38;2.90;;;;;;;6.25;86.29;95986.38;5087787;28;20040;-64
2022/02/19 01:15:29;;;;;;;5.53;2.65;;;;;;;6.37;86.31;95995.16;5088482;28;20020;-64
2022/02/19 01:17:56;;;;;;;5.13;2.20;;;;;;;6.45;86.96;95998.03;5095270;28;20043;-64
2022/02/19 01:20:22;;;;;;;4.00;1.73;;;;;;;6.28;88.59;96007.09;5085009;28;20399;-64
2022/02/19 01:22:47;;;;;;;3.03;1.45;;;;;;;6.10;90.13;96004.00;5089093;28;20085;-64
2022/02/19 01:25:13;;;;;;;5.43;2.90;;;;;;;5.92;91.27;96011.28;5090538;28;20090;-64
2022/02/19 01:27:39;;;;;;;7.75;3.75;;;;;;;5.89;91.64;96014.94;5087974;28;20043;-64
2022/02/19 01:30:06;;;;;;;3.70;2.78;;;;;;;6.06;91.29;96020.81;5080844;28;20500;-64
2022/02/19 01:32:32;;;;;;;3.47;2.65;;;;;;;5.90;92.23;96023.59;5085000;28;20047;-64
2022/02/19 01:34:58;;;;;;;4.85;2.40;;;;;;;5.80;93.23;96018.16;5086417;28;20036;-64
2022/02/19 01:37:24;;;;;;;6.85;3.17;;;;;;;5.75;93.86;96010.66;5091096;28;20036;-64
2022/02/19 01:39:49;;;;;;;2.58;1.77;;;;;;;5.67;94.40;96018.16;5088754;28;20111;-64
2022/02/19 01:42:15;;;;;;;4.88;2.35;;;;;;;5.68;94.82;96019.84;5083077;28;20122;-64
2022/02/19 01:44:44;;;;;;;5.55;2.53;;;;;;;5.61;95.16;96029.03;5088157;28;20028;-64
2022/02/19 01:47:10;;;;;;;4.72;2.53;;;;;;;5.61;95.16;96029.84;5080816;28;20050;-64
2022/02/19 01:49:35;;;;;;;6.50;3.42;;;;;;;5.56;95.55;96032.81;5081697;28;20547;-64
2022/02/19 01:52:01;;;;;;;5.47;3.60;;;;;;;5.58;96.19;96022.22;5084030;28;20035;-63
2022/02/19 01:54:27;;;;;;;6.47;2.90;;;;;;;5.60;95.39;96033.41;5082401;28;20552;-64
2022/02/19 01:56:53;;;;;;;3.45;2.30;;;;;;;5.60;95.81;96038.63;5082127;28;20028;-64
2022/02/19 01:59:19;;;;;;;3.25;2.08;;;;;;;5.68;94.86;96031.13;5087971;28;20028;-63
2022/02/19 02:01:45;;;;;;;2.75;1.90;;;;;;;5.62;95.87;96025.50;5084180;28;20024;-63
2022/02/19 02:04:10;;;;;;;2.97;2.03;;;;;;;5.61;96.54;96029.84;5087012;28;20027;-63
2022/02/19 02:06:36;;;;;;;3.03;1.80;;;;;;;5.59;97.28;96032.59;5087796;28;20032;-63
2022/02/19 02:09:03;;;;;;;3.80;2.78;;;;;;;5.58;96.61;96032.69;5084776;28;20028;-64
2022/02/19 02:11:30;;;;;;;4.93;2.67;;;;;;;5.54;98.00;96039.06;5088988;28;20020;-64
2022/02/19 02:13:55;;;;;;;4.40;3.05;;;;;;;5.52;98.64;96044.38;5083687;28;20495;-64
2022/02/19 02:16:21;;;;;;;9.35;3.38;;;;;;;5.50;98.97;96048.03;5083168;28;20039;-64
2022/02/19 02:18:46;;;;;;;5.45;2.72;;;;;;;5.45;100.00;96043.09;5077477;28;20051;-64
2022/02/19 02:21:12;;;;;;;4.35;2.30;;;;;;;5.35;100.00;96048.09;5086856;28;20031;-64
2022/02/19 02:23:38;;;;;;;3.97;2.88;;;;;;;5.34;100.00;96056.88;5083804;28;20089;-64
2022/02/19 02:26:04;;;;;;;3.30;2.95;;;;;;;5.38;100.00;96063.56;5081107;28;20029;-64
2022/02/19 02:28:30;;;;;;;5.35;2.72;;;;;;;5.38;100.00;96063.56;5081835;28;20036;-64
2022/02/19 02:30:56;;;;;;;4.28;2.65;;;;;;;5.35;100.00;96062.94;5082697;28;20085;-64
2022/02/19 02:33:22;;;;;;;2.28;2.00;;;;;;;5.29;100.00;96064.19;5085340;28;20407;-64
2022/02/19 02:35:49;;;;;;;8.25;2.28;;;;;;;5.34;100.00;96063.88;5080515;28;20029;-64
2022/02/19 02:38:15;;;;;;;3.47;2.40;;;;;;;5.37;100.00;96053.25;5086081;28;20032;-64
2022/02/19 02:40:41;;;;;;;3.65;2.40;;;;;;;5.36;100.00;96055.00;5076523;28;20381;-64
2022/02/19 02:43:06;;;;;;;3.85;2.20;;;;;;;5.37;100.00;96059.28;5085786;28;20023;-64
2022/02/19 02:45:32;;;;;;;4.55;2.20;;;;;;;5.28;100.00;96060.72;5084154;28;20097;-64
2022/02/19 02:47:57;;;;;;;3.25;2.10;;;;;;;5.28;100.00;96057.28;5086764;28;20024;-64
2022/02/19 02:50:22;;;;;;;2.85;2.05;;;;;;;5.26;100.00;96062.59;5084446;28;20045;-64
2022/02/19 02:52:48;;;;;;;6.78;2.28;;;;;;;5.24;100.00;96063.66;5084220;28;20099;-64
2022/02/19 02:55:13;;;;;;;3.15;1.88;;;;;;;5.26;100.00;96061.78;5087578;28;20027;-64
2022/02/19 02:57:40;;;;;;;4.90;2.58;;;;;;;5.30;100.00;96058.03;5090122;28;20028;-64
2022/02/19 03:00:08;;;;;;;2.55;2.10;;;;;;;5.30;100.00;96071.91;5081487;28;20029;-64
2022/02/19 03:02:34;;;;;;;4.53;2.70;;;;;;;5.27;100.00;96069.47;5079713;28;20024;-63
2022/02/19 03:05:00;;;;;;;4.50;2.78;;;;;;;5.19;100.00;96069.16;5084408;28;20525;-63
2022/02/19 03:07:26;;;;;;;2.78;1.80;;;;;;;5.16;100.00;96082.41;5079566;28;20615;-63
2022/02/19 03:09:52;;;;;;;5.60;2.58;;;;;;;5.13;100.00;96085.22;5087015;28;20555;-63
2022/02/19 03:12:17;;;;;;;4.00;2.65;;;;;;;5.10;100.00;96083.63;5083300;28;20024;-63
2022/02/19 03:14:42;;;;;;;4.85;2.50;;;;;;;5.10;100.00;96073.19;5087137;28;20019;-63
2022/02/19 03:17:08;;;;;;;4.22;2.30;;;;;;;5.09;100.00;96076.75;5084402;28;20496;-63
2022/02/19 03:19:33;;;;;;;6.50;2.20;;;;;;;5.03;100.00;96071.94;5086492;28;20031;-63
2022/02/19 03:21:58;;;;;;;5.55;1.67;;;;;;;4.98;100.00;96080.03;5081289;28;20064;-63
2022/02/19 03:24:24;;;;;;;2.88;1.63;;;;;;;5.02;100.00;96083.31;5085557;28;20056;-63
2022/02/19 03:26:49;;;;;;;9.57;1.80;;;;;;;5.01;100.00;96079.84;5081541;28;20020;-63
2022/02/19 03:29:15;;;;;;;4.18;2.20;;;;;;;4.97;100.00;96083.59;5085973;28;20028;-63
2022/02/19 03:31:40;;;;;;;4.63;2.28;;;;;;;4.91;100.00;96083.13;5083358;28;20028;-63
2022/02/19 03:34:05;;;;;;;4.43;2.00;;;;;;;4.90;100.00;96081.47;5075859;28;20032;-63
2022/02/19 03:36:31;;;;;;;5.80;2.47;;;;;;;4.86;100.00;96081.66;5082700;28;20028;-63
2022/02/19 03:38:56;;;;;;;4.85;2.30;;;;;;;4.87;100.00;96082.50;5085878;28;20031;-63
2022/02/19 03:41:22;;;;;;;6.78;2.67;;;;;;;4.87;100.00;96079.91;5087964;28;20107;-63
2022/02/19 03:43:47;;;;;;;3.92;1.70;;;;;;;4.84;100.00;96082.69;5076976;28;20439;-63
2022/02/19 03:46:12;;;;;;;3.33;1.98;;;;;;;4.79;100.00;96084.75;5081850;28;20485;-63
2022/02/19 03:48:38;;;;;;;3.67;1.98;;;;;;;4.81;100.00;96088.94;5085155;28;20031;-63
2022/02/19 03:51:05;;;;;;;7.68;2.00;;;;;;;4.79;100.00;96089.97;5083093;28;20028;-63
2022/02/19 03:53:30;;;;;;;5.22;2.03;;;;;;;4.76;100.00;96085.78;5084183;28;20065;-63
2022/02/19 03:55:56;;;;;;;4.53;1.70;;;;;;;4.79;100.00;96079.53;5078453;28;20488;-63
2022/02/19 03:58:21;;;;;;;10.18;2.10;;;;;;;4.72;100.00;96079.06;5083145;28;20427;-63
2022/02/19 04:00:46;;;;;;;4.93;2.20;;;;;;;4.70;100.00;96081.78;5087373;28;20028;-63
2022/02/19 04:03:12;;;;;;;4.93;1.85;;;;;;;4.65;100.00;96073.41;5082456;28;20031;-63
2022/02/19 04:05:37;;;;;;;3.00;1.80;;;;;;;4.59;100.00;96077.25;5072564;28;20060;-63
2022/02/19 04:08:05;;;;;;;2.80;2.08;;;;;;;4.63;100.00;96069.22;5086392;28;20484;-62
2022/02/19 04:10:31;;;;;;;5.63;1.85;;;;;;;4.58;100.00;96067.75;5076566;28;20058;-63
2022/02/19 04:12:56;;;;;;;4.00;2.17;;;;;;;4.55;100.00;96067.09;5070556;28;20075;-63
2022/02/19 04:15:21;;;;;;;5.60;2.00;;;;;;;4.57;100.00;96065.22;5072384;28;20547;-63
2022/02/19 04:17:47;;;;;;;5.57;2.10;;;;;;;4.56;100.00;96066.16;5073924;28;20049;-63
2022/02/19 04:20:12;;;;;;;3.45;1.90;;;;;;;4.53;100.00;96058.53;5073919;28;20052;-63
2022/02/19 04:22:41;;;;;;;5.45;2.28;;;;;;;4.55;100.00;96062.72;5075669;28;20369;-63
2022/02/19 04:25:08;;;;;;;2.30;1.65;;;;;;;4.49;100.00;96072.69;5075842;28;20024;-63
2022/02/19 04:27:33;;;;;;;3.40;1.73;;;;;;;4.45;100.00;96069.44;5093882;28;20073;-63
2022/02/19 04:29:58;;;;;;;6.03;1.85;;;;;;;4.46;100.00;96067.69;5093905;28;20390;-63
2022/02/19 04:32:24;;;;;;;4.30;1.92;;;;;;;4.39;100.00;96052.38;5094015;28;20046;-62
2022/02/19 04:34:49;;;;;;;5.40;1.80;;;;;;;4.42;100.00;96053.97;5093918;28;20034;-63
2022/02/19 04:37:14;;;;;;;4.10;1.80;;;;;;;4.44;100.00;96066.00;5092545;28;20024;-63
2022/02/19 04:39:40;;;;;;;3.17;1.90;;;;;;;4.37;100.00;96061.25;5093833;28;20117;-63
2022/02/19 04:42:05;;;;;;;5.22;2.05;;;;;;;4.29;100.00;96061.72;5093901;28;20485;-63
2022/02/19 04:44:31;;;;;;;8.35;3.00;;;;;;;4.28;100.00;96053.03;5093575;28;20040;-63
2022/02/19 04:46:56;;;;;;;5.60;2.55;;;;;;;4.25;100.00;96044.59;5093706;28;20036;-63
2022/02/19 04:49:22;;;;;;;7.45;4.10;;;;;;;4.24;100.00;96048.13;5093712;28;20107;-63
2022/02/19 04:51:47;;;;;;;3.80;2.42;;;;;;;4.25;100.00;96039.38;5093399;28;20082;-63
2022/02/19 04:54:12;;;;;;;7.25;2.38;;;;;;;4.26;100.00;96041.88;5093602;28;20468;-63
2022/02/19 04:56:38;;;;;;;6.75;2.40;;;;;;;4.23;98.79;96041.25;5075286;28;20525;-63
2022/02/19 04:59:03;;;;;;;5.68;2.35;;;;;;;4.23;97.55;96043.84;5093386;28;20028;-63
2022/02/19 05:01:29;;;;;;;3.45;1.95;;;;;;;4.21;97.15;96038.72;5093392;28;20038;-63
2022/02/19 05:03:54;;;;;;;6.28;2.35;;;;;;;4.23;97.08;96036.88;5093451;28;20541;-63
2022/02/19 05:06:20;;;;;;;3.75;1.92;;;;;;;4.25;98.70;96042.81;5093143;28;20028;-63
2022/02/19 05:08:46;;;;;;;2.75;1.83;;;;;;;4.16;100.00;96036.41;5093268;28;20495;-63
2022/02/19 05:11:11;;;;;;;3.63;2.42;;;;;;;4.00;100.00;96039.09;5093146;28;20030;-63
2022/02/19 05:13:37;;;;;;;5.43;2.17;;;;;;;3.91;100.00;96029.25;5093091;28;20088;-63
2022/02/19 05:16:03;;;;;;;2.70;2.45;;;;;;;3.90;100.00;96039.75;5092902;28;20027;-63
2022/02/19 05:18:28;;;;;;;4.78;2.67;;;;;;;3.85;100.00;96033.06;5092954;28;20048;-63
2022/02/19 05:20:53;;;;;;;2.63;2.40;;;;;;;3.83;100.00;96040.13;5093071;28;20483;-63
2022/02/19 05:23:21;;;;;;;8.45;3.97;;;;;;;3.90;100.00;96039.75;5093003;28;20070;-62
2022/02/19 05:25:47;;;;;;;8.50;4.25;;;;;;;3.92;100.00;96036.13;5091193;28;20392;-63
2022/02/19 05:28:13;;;;;;;8.10;4.25;;;;;;;3.92;100.00;96036.13;5092600;28;20028;-63
2022/02/19 05:30:38;;;;;;;8.07;3.03;;;;;;;3.94;100.00;96042.09;5092820;28;20547;-63
2022/02/19 05:33:04;;;;;;;10.02;3.08;;;;;;;3.90;100.00;96042.34;5092848;28;20026;-62
2022/02/19 05:35:29;;;;;;;4.88;2.47;;;;;;;3.89;100.00;96035.47;5092712;28;20036;-62
2022/02/19 05:37:55;;;;;;;4.22;2.38;;;;;;;3.84;100.00;96040.94;5092682;28;20039;-63
2022/02/19 05:40:20;;;;;;;9.23;4.82;;;;;;;3.78;100.00;96049.13;5092470;28;20027;-63
2022/02/19 05:42:46;;;;;;;7.68;4.60;;;;;;;3.75;100.00;96041.50;5092760;28;20016;-62
2022/02/19 05:45:11;;;;;;;6.10;3.53;;;;;;;3.70;100.00;96046.97;5091803;28;20055;-63
2022/02/19 05:47:36;;;;;;;5.57;2.50;;;;;;;3.64;100.00;96053.38;5092410;28;20036;-63
2022/02/19 05:50:03;;;;;;;3.58;2.63;;;;;;;3.70;100.00;96041.78;5092452;28;20020;-63
2022/02/19 05:52:28;;;;;;;5.72;2.90;;;;;;;3.81;100.00;96041.13;5092113;28;20495;-63
2022/02/19 05:54:54;;;;;;;4.20;2.40;;;;;;;3.84;100.00;96043.56;5092307;28;20093;-63
2022/02/19 05:57:21;;;;;;;5.65;2.72;;;;;;;3.80;100.00;96042.91;5092169;28;20020;-63
2022/02/19 05:59:46;;;;;;;7.75;3.08;;;;;;;3.72;100.00;96042.50;5092434;28;20165;-63
2022/02/19 06:02:12;;;;;;;5.22;3.08;;;;;;;3.70;100.00;96053.03;5092074;28;20543;-63
2022/02/19 06:04:37;;;;;;;11.30;3.08;;;;;;;3.77;100.00;96057.88;5091929;28;20633;-62
2022/02/19 06:07:03;;;;;;;7.80;2.63;;;;;;;3.79;100.00;96046.47;5091519;28;20016;-63
2022/02/19 06:09:28;;;;;;;6.45;5.78;;;;;;;3.82;100.00;96048.03;5091987;28;20387;-63
2022/02/19 06:11:54;;;;;;;6.40;3.88;;;;;;;3.82;100.00;96054.06;5092046;28;20020;-63
2022/02/19 06:14:19;;;;;;;4.05;2.35;;;;;;;3.89;100.00;96048.50;5091951;28;20020;-62
2022/02/19 06:16:44;;;;;;;7.07;2.42;;;;;;;3.90;100.00;96056.22;5092119;28;20039;-63
2022/02/19 06:19:10;;;;;;;5.85;2.70;;;;;;;3.89;100.00;96061.53;5091720;28;20101;-63
2022/02/19 06:21:35;;;;;;;8.63;2.95;;;;;;;3.81;100.00;96062.81;5091811;28;20024;-62
2022/02/19 06:24:00;;;;;;;13.75;9.57;;;;;;;3.83;100.00;96068.78;5073538;28;20491;-63
2022/02/19 06:26:26;;;;;;;4.07;3.67;;;;;;;3.82;100.00;96059.28;5091307;28;20028;-63
2022/02/19 06:28:51;;;;;;;4.60;3.13;;;;;;;3.89;100.00;96066.72;5091494;28;20030;-62
2022/02/19 06:31:17;;;;;;;7.28;2.80;;;;;;;3.84;100.00;96061.78;5091521;28;20024;-61
2022/02/19 06:33:42;;;;;;;5.82;2.78;;;;;;;3.83;100.00;96060.09;5091467;28;20434;-60
2022/02/19 06:36:07;;;;;;;4.88;2.65;;;;;;;3.83;100.00;96065.31;5091533;28;20116;-61
2022/02/19 06:38:39;;;;;;;6.43;2.75;;;;;;;3.79;100.00;96058.63;5090862;28;20020;-60
2022/02/19 06:41:06;;;;;;;4.60;2.10;;;;;;;3.82;100.00;96058.44;5093702;28;20034;-61
2022/02/19 06:43:31;;;;;;;2.40;2.10;;;;;;;3.82;100.00;96072.31;5099898;28;20028;-61
2022/02/19 06:45:57;;;;;;;8.25;3.00;;;;;;;3.87;100.00;96072.06;5096009;28;20870;-61
2022/02/19 06:48:22;;;;;;;7.47;3.33;;;;;;;3.94;100.00;96073.34;5093308;28;20055;-60
2022/02/19 06:50:47;;;;;;;11.10;3.63;;;;;;;3.95;100.00;96077.63;5093483;28;20032;-61
2022/02/19 06:53:13;;;;;;;9.85;5.82;;;;;;;3.88;100.00;96078.94;5093150;28;20030;-59
2022/02/19 06:55:38;;;;;;;10.85;7.93;;;;;;;3.89;100.00;96085.81;5094109;28;20077;-61
2022/02/19 06:58:03;;;;;;;7.55;3.42;;;;;;;3.90;100.00;96079.69;5092596;28;20050;-52
2022/02/19 07:00:29;;;;;;;7.85;2.90;;;;;;;3.88;99.81;96084.16;5094263;28;20557;-51
2022/02/19 07:02:54;;;;;;;8.02;4.70;;;;;;;4.01;99.16;96089.47;5092451;28;20110;-51
2022/02/19 07:05:20;;;;;;;10.82;4.22;;;;;;;3.95;99.30;96089.81;5095765;28;20052;-52
2022/02/19 07:07:45;;;;;;;11.35;7.05;;;;;;;3.95;99.01;96088.06;5093200;28;20038;-52
2022/02/19 07:10:11;;;;;;;13.65;6.35;;;;;;;3.97;99.06;96088.78;5091864;28;20023;-48
2022/02/19 07:12:37;;;;;;;14.65;9.82;;;;;;;3.99;99.03;96092.16;5096044;28;20031;-51
2022/02/19 07:15:09;;;;;;;13.43;4.70;;;;;;;3.97;98.42;96101.81;5098578;28;20084;-50
2022/02/19 07:17:46;;;;;;;6.22;3.08;;;;;;;3.98;97.53;96095.69;5092674;28;20048;-48
2022/02/19 07:20:11;;;;;;;10.20;6.63;;;;;;;4.03;97.76;96100.63;5094436;28;20020;-51
2022/02/19 07:22:37;;;;;;;8.95;6.90;;;;;;;4.11;97.36;96094.97;5096650;28;20028;-51
2022/02/19 07:25:02;;;;;;;8.68;3.65;;;;;;;4.15;97.32;96092.06;5095298;28;20055;-49
2022/02/19 07:27:36;;;;;;;8.75;3.72;;;;;;;4.14;97.58;96094.78;5092426;28;20028;-51
2022/02/19 07:30:02;;;;;;;9.05;3.40;;;;;;;4.17;98.00;96097.19;5092193;28;20020;-50
2022/02/19 07:32:28;;;;;;;9.25;3.30;;;;;;;4.23;96.96;96109.84;5093579;28;20030;-51
2022/02/19 07:34:54;;;;;;;9.75;3.22;;;;;;;4.26;97.31;96101.00;5094484;28;20128;-52
2022/02/19 07:37:19;;;;;;;11.65;4.57;;;;;;;4.28;97.58;96102.56;5095922;28;20499;-52
2022/02/19 07:39:44;;;;;;;9.13;4.57;;;;;;;4.39;97.80;96108.91;5097608;28;20556;-51
2022/02/19 07:42:10;;;;;;;10.70;3.83;;;;;;;4.52;95.77;96096.78;5087725;28;20020;-49
2022/02/19 07:44:35;;;;;;;11.55;3.55;;;;;;;4.62;94.01;96109.28;5088996;28;20051;-51
2022/02/19 07:47:00;;;;;;;9.07;4.95;;;;;;;4.68;93.64;96108.88;5093284;28;20020;-49
2022/02/19 08:00:22;;;;;;;9.68;3.42;;;;;;;5.04;89.83;96124.94;5097156;28;20035;-49
2022/02/19 08:02:47;;;;;;;6.55;3.88;;;;;;;5.16;89.69;96132.81;5099248;28;20437;-49
2022/02/19 08:05:12;;;;;;;4.82;3.05;;;;;;;5.13;88.76;96130.41;5087660;28;20030;-50
2022/02/19 08:07:38;;;;;;;4.90;3.00;;;;;;;5.23;87.73;96129.84;5104472;28;20036;-48
2022/02/19 08:10:03;;;;;;;6.97;2.42;;;;;;;5.26;87.93;96143.53;5096275;28;20020;-46
2022/02/19 08:12:29;;;;;;;13.15;3.60;;;;;;;5.33;87.55;96143.97;5099836;28;20040;-50
2022/02/19 08:14:54;;;;;;;9.50;3.83;;;;;;;5.25;88.45;96144.47;5100409;28;20112;-50
2022/02/19 08:17:20;;;;;;;12.45;4.35;;;;;;;5.34;88.47;96145.66;5098381;28;20067;-50
2022/02/19 08:19:45;;;;;;;8.55;3.80;;;;;;;5.24;88.05;96152.41;5098164;28;20159;-48
2022/02/19 08:22:10;;;;;;;14.05;5.50;;;;;;;5.28;88.86;96151.28;5094998;28;20043;-51
2022/02/19 08:24:36;;;;;;;15.32;6.00;;;;;;;5.31;88.31;96145.84;5096706;28;20024;-49
2022/02/19 08:27:01;;;;;;;12.45;4.47;;;;;;;5.14;87.52;96141.72;5093596;28;20048;-51
2022/02/19 08:29:26;;;;;;;11.23;3.50;;;;;;;5.16;86.73;96145.06;5092510;28;20035;-50
2022/02/19 08:31:52;;;;;;;9.18;3.63;;;;;;;5.22;85.21;96139.44;5093549;28;20507;-49
2022/02/19 08:34:17;;;;;;;9.07;3.70;;;;;;;5.24;86.38;96136.75;5092461;28;20027;-51
2022/02/19 08:36:42;;;;;;;9.35;2.92;;;;;;;5.35;84.71;96136.06;5093284;28;20016;-48
2022/02/19 08:39:08;;;;;;;8.82;2.88;;;;;;;5.47;84.64;96142.25;5092735;28;20031;-49
2022/02/19 08:41:33;;;;;;;8.23;2.97;;;;;;;5.64;83.99;96134.16;5094331;28;20031;-53
2022/02/19 08:43:59;;;;;;;6.43;2.83;;;;;;;5.86;83.66;96140.59;5092057;28;20097;-48
2022/02/19 08:46:25;;;;;;;7.60;2.80;;;;;;;5.97;82.97;96148.53;5093003;28;20398;-50
2022/02/19 08:48:50;;;;;;;8.57;3.35;;;;;;;6.10;81.53;96150.38;5093328;28;20039;-51
2022/02/19 08:51:16;;;;;;;7.90;3.45;;;;;;;6.03;80.88;96149.94;5091335;28;20031;-47
2022/02/19 08:53:42;;;;;;;6.25;3.40;;;;;;;6.13;81.16;96152.78;5094341;28;20027;-49
2022/02/19 08:56:07;;;;;;;9.07;3.70;;;;;;;6.37;79.61;96147.66;5093909;28;20034;-48
2022/02/19 08:58:32;;;;;;;6.10;3.00;;;;;;;6.41;79.58;96141.28;5093406;28;20032;-49
2022/02/19 09:00:58;;;;;;;9.25;4.05;;;;;;;6.28;79.80;96143.88;5091268;28;20027;-48
2022/02/19 09:03:23;;;;;;;8.30;2.90;;;;;;;6.28;80.10;96150.91;5094526;28;20493;-49
2022/02/19 09:05:49;;;;;;;8.93;2.80;;;;;;;6.08;80.38;96157.47;5101522;28;20039;-50
2022/02/19 09:08:14;;;;;;;7.50;2.50;;;;;;;6.08;80.22;96160.94;5092180;28;20020;-52
2022/02/19 09:10:40;;;;;;;6.82;2.63;;;;;;;6.30;79.45;96151.63;5098070;28;20035;-51
2022/02/19 09:13:05;;;;;;;5.97;2.83;;;;;;;6.63;77.73;96155.50;5099039;28;20031;-49
2022/02/19 09:15:31;;;;;;;6.70;2.70;;;;;;;6.98;77.57;96167.91;5102894;28;20091;-53
2022/02/19 09:17:56;;;;;;;7.70;2.72;;;;;;;7.32;74.70;96164.66;5095327;28;20044;-51
2022/02/19 09:20:22;;;;;;;6.30;2.67;;;;;;;7.65;73.95;96164.97;5092459;28;20060;-51
2022/02/19 09:22:48;;;;;;;7.13;3.10;;;;;;;7.62;73.16;96168.63;5093149;28;20024;-53
2022/02/19 09:25:14;;;;;;;6.20;3.20;;;;;;;7.64;73.90;96169.38;5093276;28;20531;-51
2022/02/19 09:27:41;;;;;;;6.47;2.60;;;;;;;7.57;73.51;96162.91;5092303;28;20127;-53
2022/02/19 09:30:08;;;;;;;5.07;3.00;;;;;;;7.51;74.04;96163.34;5092906;28;20032;-52
2022/02/19 09:32:33;;;;;;;10.43;5.25;;;;;;;7.95;73.80;96169.72;5097101;28;20028;-52
2022/02/19 09:34:59;;;;;;;15.93;6.40;;;;;;;8.04;73.53;96160.34;5094255;28;20032;-50
2022/02/19 09:37:27;;;;;;;8.18;3.90;;;;;;;7.87;72.96;96157.19;5094301;28;20572;-49
2022/02/19 09:39:56;;;;;;;10.98;4.25;;;;;;;7.77;74.03;96152.75;5094882;28;20027;-51
2022/02/19 09:42:23;;;;;;;9.50;4.10;;;;;;;7.40;74.71;96157.09;5094186;28;20020;-49
2022/02/19 09:44:49;;;;;;;9.18;3.47;;;;;;;7.41;75.54;96160.56;5095971;28;20449;-50
2022/02/19 09:47:23;;;;;;;8.45;4.05;;;;;;;7.68;74.68;96160.34;5097220;28;20020;-52
2022/02/19 09:49:49;;;;;;;11.48;3.40;;;;;;;7.87;73.76;96157.19;5094384;28;20411;-50
2022/02/19 09:52:14;;;;;;;8.70;3.25;;;;;;;7.90;73.65;96158.75;5093875;28;20390;-53
2022/02/19 09:54:40;;;;;;;6.82;2.85;;;;;;;7.81;73.19;96154.19;5097044;28;20024;-51
2022/02/19 09:57:05;;;;;;;11.80;3.25;;;;;;;8.05;73.28;96155.91;5089015;28;20027;-52
2022/02/19 09:59:30;;;;;;;5.22;2.78;;;;;;;8.00;71.82;96156.28;5093540;28;20024;-49
2022/02/19 10:02:04;;;;;;;7.22;3.00;;;;;;;8.19;70.96;96155.72;5096376;28;20032;-52
2022/02/19 10:04:30;;;;;;;8.45;3.20;;;;;;;8.59;69.37;96150.09;5089751;28;20491;-52
2022/02/19 10:07:19;;;;;;;9.00;3.35;;;;;;;9.07;67.39;96144.72;5096583;28;20024;-52
2022/02/19 10:09:46;;;;;;;6.65;2.85;;;;;;;9.36;66.69;96145.00;5092797;28;20050;-52
2022/02/19 10:12:15;;;;;;;7.25;4.05;;;;;;;9.40;66.85;96145.59;5093389;28;20028;-52
2022/02/19 10:14:45;;;;;;;11.93;2.78;;;;;;;9.51;64.28;96142.13;5095778;28;20024;-50
2022/02/19 10:17:15;;;;;;;7.63;2.75;;;;;;;9.51;62.71;96142.13;5099435;28;20525;-49
2022/02/19 10:20:04;;;;;;;8.32;2.78;;;;;;;9.36;61.70;96144.19;5097349;28;20028;-49
2022/02/19 10:22:31;;;;;;;8.65;3.35;;;;;;;9.36;64.32;96138.94;5093682;28;20032;-50
2022/02/19 10:25:09;;;;;;;12.02;3.42;;;;;;;9.41;64.27;96142.88;5098104;28;20419;-51
2022/02/19 10:27:44;;;;;;;9.48;2.72;;;;;;;9.44;63.87;96149.66;5093918;28;20491;-48
2022/02/19 10:30:11;;;;;;;8.75;2.70;;;;;;;9.42;64.68;96136.66;5098803;28;20058;-50
2022/02/19 10:32:54;;;;;;;9.77;2.88;;;;;;;9.59;62.45;96139.69;5097015;28;20035;-50
2022/02/19 10:35:30;;;;;;;10.00;3.47;;;;;;;9.77;62.75;96150.53;5100694;28;20555;-50
2022/02/19 10:37:56;;;;;;;6.00;2.80;;;;;;;9.65;60.42;96144.47;5095300;28;20038;-49
2022/02/19 10:40:40;;;;;;;6.28;2.60;;;;;;;9.69;61.12;96148.50;5096222;28;20039;-50
2022/02/19 10:43:08;;;;;;;9.20;2.90;;;;;;;9.64;60.62;96150.69;5096613;28;20032;-48
2022/02/19 10:45:36;;;;;;;6.90;3.00;;;;;;;9.75;61.28;96148.00;5095547;28;20642;-52
2022/02/19 10:48:21;;;;;;;10.13;2.72;;;;;;;9.89;59.72;96148.69;5095254;28;20072;-50
2022/02/19 10:50:48;;;;;;;11.73;4.15;;;;;;;10.43;56.54;96143.38;5095978;28;20032;-51
2022/02/19 10:53:21;;;;;;;9.60;3.85;;;;;;;10.16;56.32;96149.97;5097075;28;20123;-49
2022/02/19 10:55:47;;;;;;;8.15;3.50;;;;;;;9.91;56.58;96144.13;5094988;28;20142;-51
2022/02/19 10:58:12;;;;;;;10.23;4.13;;;;;;;9.89;57.23;96143.41;5094985;28;20120;-53
2022/02/19 11:00:40;;;;;;;7.43;3.30;;;;;;;9.49;59.83;96151.94;5096426;28;20027;-49
2022/02/19 11:03:09;;;;;;;9.30;2.53;;;;;;;9.51;60.29;96150.00;5098608;28;20093;-53
2022/02/19 11:05:35;;;;;;;8.02;2.65;;;;;;;9.41;60.25;96155.16;5093567;28;20043;-50
2022/02/19 11:08:02;;;;;;;5.25;2.33;;;;;;;9.19;61.26;96156.06;5091156;28;20096;-52
2022/02/19 11:10:29;;;;;;;10.57;3.03;;;;;;;9.31;59.81;96165.56;5099398;28;20032;-49
2022/02/19 11:12:54;;;;;;;11.02;4.78;;;;;;;9.49;59.76;96146.66;5098218;28;20109;-51
2022/02/19 11:15:23;;;;;;;9.63;4.78;;;;;;;9.51;60.04;96147.38;5098065;28;20068;-50
2022/02/19 11:17:49;;;;;;;8.55;3.22;;;;;;;9.66;60.05;96146.13;5068887;28;20044;-48
2022/02/19 11:20:15;;;;;;;6.32;2.88;;;;;;;9.90;58.32;96152.97;5094362;28;20026;-51
2022/02/19 11:22:43;;;;;;;9.95;3.70;;;;;;;10.06;57.48;96146.41;5093908;28;20406;-53
2022/02/19 11:25:10;;;;;;;5.50;3.72;;;;;;;9.84;58.06;96143.78;5070263;28;20028;-52
2022/02/19 11:27:59;;;;;;;7.78;4.50;;;;;;;9.92;57.62;96140.53;5097064;28;20032;-53
2022/02/19 11:30:27;;;;;;;7.30;2.97;;;;;;;9.99;57.12;96139.06;5080343;28;20121;-49
2022/02/19 11:32:56;;;;;;;11.77;2.92;;;;;;;9.87;55.76;96145.34;5098043;28;20111;-52
2022/02/19 11:35:36;;;;;;;10.63;3.33;;;;;;;9.65;57.22;96133.97;5096517;28;20607;-49
2022/02/19 11:38:19;;;;;;;8.55;3.92;;;;;;;9.64;57.57;96132.28;5096576;28;20034;-50
2022/02/19 11:40:45;;;;;;;9.75;4.35;;;;;;;9.49;58.63;96136.16;5097914;28;20511;-51
2022/02/19 11:43:33;;;;;;;6.22;2.85;;;;;;;9.91;57.44;96130.97;5095100;28;20115;-53